Terminal Aerodrome Forecast
Issued by NWS Spokane, WA

Home | Current Version | Previous Version | Text Only | Print | Product List | Glossary On
Versions: 1 2 3 4 5 6 7 8 9 10 11 12 13 14 15 16 17 18 19 20 21 22 23 24
000
FTUS46 KOTX 061739
TAFGEG
TAF
KGEG 061739Z 0618/0718 18008KT P6SM SCT110 BKN200
     FM062000 20008KT P6SM SCT110 BKN200
     FM070400 15004KT P6SM SCT200=

USA.gov is the U.S. government's official web portal to all federal, state and local government web resources and services.